Terminal Aerodrome Forecast
Issued by NWS Sioux Falls, SD

Home | Current Version | Previous Version | Graphics & Text | Print | Product List | Glossary Off
Versions: 1 2 3 4 5 6 7 8 9 10 11 12 13 14 15 16 17 18 19 20 21 22 23 24 25 26 27 28 29 30 31 32 33

000
FTUS43 KFSD 261100 CCA
TAFSUX
TAF COR
KSUX 261141Z 2612/2712 01004KT P6SM BKN080
      TEMPO 2613/2614 -SHRA BKN060
     FM261500 05006KT P6SM BKN080
     FM261900 10006KT P6SM OVC090
     FM270200 07005KT P6SM OVC060
      TEMPO 2703/2706 5SM TSRA OVC035CB
     FM270600 07006KT 5SM TSRA BKN025CB=

USA.gov is the U.S. government's official web portal to all federal, state and local government web resources and services.